JA321B RJAF-RJTT
Flight info
| Callsign | JA321B |
|---|---|
| Flight time | 0h 44m |
| Altitude | 23000 |
| Route | MBE TENRU Y88 NIKKO GODIN |
| Aircraft | HDJT/L-SABDGRWY/H |
Departure
| Time | 2026-04-24 12:48 |
|---|---|
| Airport | Shinshu-Matsumoto Airport (RJAF) |
Arrival
| Time | 2026-04-24 13:32 |
|---|---|
| Airport | Tokyo Haneda International Airport (RJTT) |
| Time | Latitude | Longitude | Altitude | Speed | Heading |
|---|---|---|---|---|---|
| 2026-04-24 12:32 | 36.16401 | 137.92583 | 2175 ft | 0 kts | 82° |
| 2026-04-24 12:42 | 36.16401 | 137.92584 | 2175 ft | 1 kts | 82° |
| 2026-04-24 12:42 | 36.16412 | 137.92583 | 2171 ft | 3 kts | 284° |
| 2026-04-24 12:43 | 36.16410 | 137.92532 | 2173 ft | 9 kts | 282° |
| 2026-04-24 12:43 | 36.16426 | 137.92468 | 2170 ft | 7 kts | 275° |
| 2026-04-24 12:43 | 36.16422 | 137.92422 | 2171 ft | 3 kts | 259° |
| 2026-04-24 12:43 | 36.16418 | 137.92392 | 2176 ft | 6 kts | 262° |
| 2026-04-24 12:44 | 36.16398 | 137.92333 | 2173 ft | 8 kts | 206° |
| 2026-04-24 12:44 | 36.16346 | 137.92330 | 2171 ft | 7 kts | 173° |
| 2026-04-24 12:44 | 36.16303 | 137.92337 | 2174 ft | 6 kts | 169° |
| 2026-04-24 12:44 | 36.16262 | 137.92346 | 2173 ft | 5 kts | 169° |
| 2026-04-24 12:45 | 36.16229 | 137.92354 | 2165 ft | 5 kts | 171° |
| 2026-04-24 12:45 | 36.16178 | 137.92363 | 2174 ft | 11 kts | 172° |
| 2026-04-24 12:45 | 36.16084 | 137.92381 | 2176 ft | 16 kts | 170° |
| 2026-04-24 12:45 | 36.15965 | 137.92404 | 2176 ft | 17 kts | 174° |
| 2026-04-24 12:46 | 36.15859 | 137.92405 | 2173 ft | 12 kts | 172° |
| 2026-04-24 12:46 | 36.15828 | 137.92428 | 2177 ft | 2 kts | 43° |
| 2026-04-24 12:46 | 36.15839 | 137.92429 | 2177 ft | 0 kts | 349° |
| 2026-04-24 12:47 | 36.15902 | 137.92418 | 2174 ft | 35 kts | 352° |
| 2026-04-24 12:47 | 36.16408 | 137.92318 | 2174 ft | 112 kts | 352° |
| 2026-04-24 12:47 | 36.17363 | 137.92140 | 2423 ft | 162 kts | 351° |
| 2026-04-24 12:48 | 36.18614 | 137.91914 | 3115 ft | 192 kts | 352° |
| 2026-04-24 12:48 | 36.20009 | 137.91662 | 4026 ft | 215 kts | 352° |
| 2026-04-24 12:48 | 36.21562 | 137.91376 | 4938 ft | 235 kts | 351° |
| 2026-04-24 12:48 | 36.23223 | 137.91068 | 5933 ft | 248 kts | 351° |
| 2026-04-24 12:49 | 36.24970 | 137.91142 | 6964 ft | 259 kts | 15° |
| 2026-04-24 12:49 | 36.26513 | 137.92310 | 8045 ft | 267 kts | 45° |
| 2026-04-24 12:49 | 36.27410 | 137.94324 | 9151 ft | 273 kts | 75° |
| 2026-04-24 12:49 | 36.27419 | 137.96640 | 10291 ft | 276 kts | 103° |
| 2026-04-24 12:50 | 36.26543 | 137.98746 | 11415 ft | 278 kts | 131° |
| 2026-04-24 12:50 | 36.24972 | 138.00102 | 12527 ft | 277 kts | 160° |
| 2026-04-24 12:50 | 36.23092 | 138.00405 | 13618 ft | 272 kts | 190° |
| 2026-04-24 12:50 | 36.21375 | 137.99579 | 14698 ft | 261 kts | 221° |
| 2026-04-24 12:51 | 36.20180 | 137.97963 | 15798 ft | 250 kts | 238° |
| 2026-04-24 12:51 | 36.19121 | 137.96234 | 16513 ft | 258 kts | 235° |
| 2026-04-24 12:51 | 36.17727 | 137.94718 | 17046 ft | 277 kts | 218° |
| 2026-04-24 12:51 | 36.15982 | 137.93585 | 17584 ft | 291 kts | 208° |
| 2026-04-24 12:52 | 36.13977 | 137.92938 | 18118 ft | 306 kts | 195° |
| 2026-04-24 12:52 | 36.11794 | 137.92892 | 18650 ft | 322 kts | 181° |
| 2026-04-24 12:52 | 36.09545 | 137.93332 | 19010 ft | 334 kts | 178° |
| 2026-04-24 12:52 | 36.07214 | 137.93736 | 19316 ft | 342 kts | 180° |
| 2026-04-24 12:53 | 36.04833 | 137.94107 | 19622 ft | 349 kts | 180° |
| 2026-04-24 12:53 | 36.02418 | 137.94529 | 19927 ft | 350 kts | 179° |
| 2026-04-24 12:53 | 36.00029 | 137.94981 | 20225 ft | 348 kts | 179° |
| 2026-04-24 12:53 | 35.97627 | 137.95399 | 20525 ft | 347 kts | 180° |
| 2026-04-24 12:54 | 35.95228 | 137.95790 | 20824 ft | 349 kts | 181° |
| 2026-04-24 12:54 | 35.92804 | 137.96204 | 21130 ft | 353 kts | 180° |
| 2026-04-24 12:54 | 35.90389 | 137.96645 | 21430 ft | 348 kts | 180° |
| 2026-04-24 12:54 | 35.88003 | 137.97069 | 21727 ft | 347 kts | 180° |
| 2026-04-24 12:55 | 35.85623 | 137.97746 | 22025 ft | 358 kts | 171° |
| 2026-04-24 12:55 | 35.83293 | 137.98926 | 22323 ft | 366 kts | 162° |
| 2026-04-24 12:55 | 35.81107 | 138.00610 | 22625 ft | 378 kts | 153° |
| 2026-04-24 12:55 | 35.79106 | 138.02766 | 22923 ft | 386 kts | 143° |
| 2026-04-24 12:56 | 35.77396 | 138.05341 | 23085 ft | 403 kts | 133° |
| 2026-04-24 12:56 | 35.76007 | 138.08450 | 23093 ft | 414 kts | 121° |
| 2026-04-24 12:56 | 35.75099 | 138.11797 | 23087 ft | 422 kts | 109° |
| 2026-04-24 12:56 | 35.74691 | 138.15397 | 23105 ft | 430 kts | 97° |
| 2026-04-24 12:57 | 35.74840 | 138.19081 | 23100 ft | 432 kts | 84° |
| 2026-04-24 12:57 | 35.75553 | 138.22678 | 23116 ft | 433 kts | 72° |
| 2026-04-24 12:57 | 35.76323 | 138.24949 | 23106 ft | 434 kts | 64° |
| 2026-04-24 12:57 | 35.77646 | 138.28268 | 23146 ft | 431 kts | 63° |
| 2026-04-24 12:58 | 35.78923 | 138.31636 | 23128 ft | 435 kts | 65° |
| 2026-04-24 12:58 | 35.80174 | 138.35032 | 23109 ft | 435 kts | 64° |
| 2026-04-24 12:58 | 35.81472 | 138.38400 | 23111 ft | 435 kts | 63° |
| 2026-04-24 12:58 | 35.82793 | 138.41748 | 23110 ft | 434 kts | 64° |
| 2026-04-24 12:59 | 35.84081 | 138.45125 | 23116 ft | 435 kts | 65° |
| 2026-04-24 12:59 | 35.85362 | 138.48541 | 23113 ft | 443 kts | 65° |
| 2026-04-24 12:59 | 35.86678 | 138.51987 | 23109 ft | 444 kts | 64° |
| 2026-04-24 12:59 | 35.88001 | 138.55404 | 23131 ft | 442 kts | 64° |
| 2026-04-24 13:00 | 35.89303 | 138.58840 | 23147 ft | 442 kts | 64° |
| 2026-04-24 13:00 | 35.90596 | 138.62280 | 23157 ft | 440 kts | 65° |
| 2026-04-24 13:00 | 35.91891 | 138.65699 | 23143 ft | 442 kts | 64° |
| 2026-04-24 13:00 | 35.93201 | 138.69123 | 23118 ft | 440 kts | 64° |
| 2026-04-24 13:01 | 35.94495 | 138.72545 | 23127 ft | 438 kts | 64° |
| 2026-04-24 13:01 | 35.95737 | 138.75866 | 23119 ft | 438 kts | 64° |
| 2026-04-24 13:01 | 35.97026 | 138.79295 | 23136 ft | 440 kts | 64° |
| 2026-04-24 13:01 | 35.98321 | 138.82721 | 23134 ft | 440 kts | 64° |
| 2026-04-24 13:02 | 35.99613 | 138.86147 | 23118 ft | 442 kts | 64° |
| 2026-04-24 13:02 | 36.00902 | 138.89582 | 23122 ft | 438 kts | 64° |
| 2026-04-24 13:02 | 36.02174 | 138.92974 | 23135 ft | 433 kts | 64° |
| 2026-04-24 13:02 | 36.03441 | 138.96344 | 23147 ft | 433 kts | 64° |
| 2026-04-24 13:03 | 36.04701 | 138.99705 | 23153 ft | 432 kts | 64° |
| 2026-04-24 13:03 | 36.05967 | 139.03092 | 23153 ft | 432 kts | 64° |
| 2026-04-24 13:03 | 36.07220 | 139.06445 | 23141 ft | 430 kts | 64° |
| 2026-04-24 13:03 | 36.08478 | 139.09818 | 23144 ft | 432 kts | 64° |
| 2026-04-24 13:04 | 36.09736 | 139.13192 | 23141 ft | 432 kts | 64° |
| 2026-04-24 13:04 | 36.10991 | 139.16560 | 23158 ft | 430 kts | 64° |
| 2026-04-24 13:04 | 36.12246 | 139.19928 | 23140 ft | 432 kts | 64° |
| 2026-04-24 13:04 | 36.13499 | 139.23294 | 23128 ft | 430 kts | 64° |
| 2026-04-24 13:05 | 36.14744 | 139.26658 | 23127 ft | 431 kts | 64° |
| 2026-04-24 13:05 | 36.15997 | 139.30020 | 23128 ft | 429 kts | 62° |
| 2026-04-24 13:05 | 36.17569 | 139.33126 | 23131 ft | 425 kts | 50° |
| 2026-04-24 13:05 | 36.19363 | 139.36040 | 23136 ft | 426 kts | 50° |
| 2026-04-24 13:06 | 36.21081 | 139.39029 | 23140 ft | 427 kts | 52° |
| 2026-04-24 13:06 | 36.22789 | 139.42036 | 23142 ft | 426 kts | 51° |
| 2026-04-24 13:06 | 36.24547 | 139.44990 | 23142 ft | 426 kts | 50° |
| 2026-04-24 13:06 | 36.26320 | 139.47940 | 23143 ft | 427 kts | 51° |
| 2026-04-24 13:07 | 36.28050 | 139.50925 | 23143 ft | 426 kts | 52° |
| 2026-04-24 13:07 | 36.29747 | 139.53874 | 23142 ft | 426 kts | 51° |
| 2026-04-24 13:07 | 36.31498 | 139.56844 | 23143 ft | 426 kts | 51° |
| 2026-04-24 13:07 | 36.33250 | 139.59802 | 23143 ft | 426 kts | 51° |
| 2026-04-24 13:08 | 36.34988 | 139.62793 | 23143 ft | 426 kts | 51° |
| 2026-04-24 13:08 | 36.36712 | 139.65788 | 23134 ft | 426 kts | 51° |
| 2026-04-24 13:08 | 36.38447 | 139.68758 | 23133 ft | 425 kts | 51° |
| 2026-04-24 13:09 | 36.41940 | 139.74690 | 23135 ft | 426 kts | 51° |
| 2026-04-24 13:09 | 36.43683 | 139.77668 | 23135 ft | 426 kts | 51° |
| 2026-04-24 13:09 | 36.45347 | 139.80710 | 23120 ft | 428 kts | 58° |
| 2026-04-24 13:09 | 36.46558 | 139.84119 | 22661 ft | 435 kts | 71° |
| 2026-04-24 13:10 | 36.47256 | 139.87731 | 22102 ft | 424 kts | 82° |
| 2026-04-24 13:10 | 36.47434 | 139.91319 | 21610 ft | 409 kts | 94° |
| 2026-04-24 13:10 | 36.47125 | 139.94798 | 21124 ft | 403 kts | 104° |
| 2026-04-24 13:10 | 36.46469 | 139.98172 | 20599 ft | 400 kts | 108° |
| 2026-04-24 13:11 | 36.45820 | 140.01524 | 20085 ft | 397 kts | 106° |
| 2026-04-24 13:11 | 36.45213 | 140.04864 | 19569 ft | 395 kts | 106° |
| 2026-04-24 13:11 | 36.44587 | 140.08175 | 19054 ft | 392 kts | 107° |
| 2026-04-24 13:11 | 36.43943 | 140.11407 | 18576 ft | 389 kts | 107° |
| 2026-04-24 13:12 | 36.43241 | 140.14638 | 18073 ft | 384 kts | 113° |
| 2026-04-24 13:12 | 36.42081 | 140.17566 | 17566 ft | 375 kts | 126° |
| 2026-04-24 13:12 | 36.40546 | 140.20115 | 17057 ft | 364 kts | 140° |
| 2026-04-24 13:12 | 36.38545 | 140.21885 | 16501 ft | 343 kts | 162° |
| 2026-04-24 13:13 | 36.36298 | 140.22569 | 15972 ft | 327 kts | 184° |
| 2026-04-24 13:13 | 36.34074 | 140.22374 | 15488 ft | 319 kts | 191° |
| 2026-04-24 13:13 | 36.31838 | 140.22225 | 15009 ft | 321 kts | 188° |
| 2026-04-24 13:13 | 36.29622 | 140.22053 | 14521 ft | 318 kts | 189° |
| 2026-04-24 13:14 | 36.27411 | 140.21886 | 14061 ft | 318 kts | 187° |
| 2026-04-24 13:14 | 36.25208 | 140.21794 | 13592 ft | 317 kts | 186° |
| 2026-04-24 13:14 | 36.23004 | 140.21701 | 13127 ft | 315 kts | 186° |
| 2026-04-24 13:14 | 36.20827 | 140.21565 | 12660 ft | 313 kts | 187° |
| 2026-04-24 13:15 | 36.18646 | 140.21429 | 12197 ft | 312 kts | 186° |
| 2026-04-24 13:15 | 36.16477 | 140.21325 | 11740 ft | 311 kts | 185° |
| 2026-04-24 13:15 | 36.14318 | 140.21214 | 11290 ft | 311 kts | 185° |
| 2026-04-24 13:15 | 36.12160 | 140.21095 | 11022 ft | 307 kts | 185° |
| 2026-04-24 13:16 | 36.10032 | 140.20976 | 11024 ft | 313 kts | 185° |
| 2026-04-24 13:16 | 36.07860 | 140.20856 | 11028 ft | 312 kts | 185° |
| 2026-04-24 13:16 | 36.05687 | 140.20737 | 11028 ft | 313 kts | 185° |
| 2026-04-24 13:16 | 36.03513 | 140.20631 | 11028 ft | 313 kts | 185° |
| 2026-04-24 13:17 | 36.01348 | 140.20421 | 11025 ft | 311 kts | 190° |
| 2026-04-24 13:17 | 35.99207 | 140.19997 | 11026 ft | 311 kts | 192° |
| 2026-04-24 13:17 | 35.97060 | 140.19641 | 11027 ft | 312 kts | 188° |
| 2026-04-24 13:17 | 35.94895 | 140.19412 | 11026 ft | 312 kts | 187° |
| 2026-04-24 13:18 | 35.92735 | 140.19139 | 11024 ft | 312 kts | 189° |
| 2026-04-24 13:18 | 35.90587 | 140.18795 | 11024 ft | 311 kts | 190° |
| 2026-04-24 13:18 | 35.88435 | 140.18482 | 11026 ft | 312 kts | 189° |
| 2026-04-24 13:18 | 35.86276 | 140.18203 | 11026 ft | 312 kts | 188° |
| 2026-04-24 13:19 | 35.84115 | 140.17913 | 11024 ft | 312 kts | 189° |
| 2026-04-24 13:19 | 35.81964 | 140.17594 | 11024 ft | 312 kts | 189° |
| 2026-04-24 13:19 | 35.79816 | 140.17290 | 11023 ft | 312 kts | 189° |
| 2026-04-24 13:19 | 35.77653 | 140.17005 | 11023 ft | 311 kts | 189° |
| 2026-04-24 13:20 | 35.75494 | 140.16706 | 10768 ft | 306 kts | 189° |
| 2026-04-24 13:20 | 35.73447 | 140.16418 | 10454 ft | 290 kts | 189° |
| 2026-04-24 13:20 | 35.71439 | 140.16136 | 10075 ft | 291 kts | 189° |
| 2026-04-24 13:20 | 35.69438 | 140.15849 | 9572 ft | 288 kts | 189° |
| 2026-04-24 13:21 | 35.67439 | 140.15581 | 9071 ft | 290 kts | 188° |
| 2026-04-24 13:21 | 35.65434 | 140.15305 | 8571 ft | 289 kts | 188° |
| 2026-04-24 13:21 | 35.63443 | 140.15022 | 8071 ft | 287 kts | 188° |
| 2026-04-24 13:21 | 35.61470 | 140.14751 | 7572 ft | 285 kts | 187° |
| 2026-04-24 13:22 | 35.59507 | 140.14481 | 7022 ft | 284 kts | 187° |
| 2026-04-24 13:22 | 35.57571 | 140.14216 | 6448 ft | 282 kts | 187° |
| 2026-04-24 13:22 | 35.55604 | 140.13946 | 5878 ft | 279 kts | 187° |
| 2026-04-24 13:22 | 35.53673 | 140.13680 | 5298 ft | 278 kts | 186° |
| 2026-04-24 13:23 | 35.51767 | 140.13410 | 4722 ft | 274 kts | 186° |
| 2026-04-24 13:23 | 35.49886 | 140.13146 | 4149 ft | 271 kts | 185° |
| 2026-04-24 13:23 | 35.48075 | 140.12898 | 4023 ft | 264 kts | 184° |
| 2026-04-24 13:23 | 35.46192 | 140.12639 | 4028 ft | 268 kts | 185° |
| 2026-04-24 13:24 | 35.44334 | 140.12383 | 4030 ft | 270 kts | 184° |
| 2026-04-24 13:24 | 35.42473 | 140.12135 | 4025 ft | 269 kts | 184° |
| 2026-04-24 13:24 | 35.40600 | 140.11872 | 4026 ft | 270 kts | 185° |
| 2026-04-24 13:24 | 35.38738 | 140.11614 | 4023 ft | 270 kts | 185° |
| 2026-04-24 13:25 | 35.36867 | 140.11352 | 4021 ft | 271 kts | 185° |
| 2026-04-24 13:25 | 35.35074 | 140.10684 | 4012 ft | 272 kts | 209° |
| 2026-04-24 13:25 | 35.33732 | 140.09121 | 4007 ft | 260 kts | 239° |
| 2026-04-24 13:25 | 35.33190 | 140.06993 | 4018 ft | 269 kts | 270° |
| 2026-04-24 13:26 | 35.33521 | 140.04856 | 4017 ft | 255 kts | 298° |
| 2026-04-24 13:26 | 35.34396 | 140.02964 | 4030 ft | 254 kts | 304° |
| 2026-04-24 13:26 | 35.35131 | 140.00985 | 4034 ft | 258 kts | 293° |
| 2026-04-24 13:26 | 35.35576 | 139.98902 | 4016 ft | 243 kts | 285° |
| 2026-04-24 13:27 | 35.35923 | 139.96970 | 3977 ft | 221 kts | 288° |
| 2026-04-24 13:27 | 35.36345 | 139.95255 | 3999 ft | 201 kts | 292° |
| 2026-04-24 13:27 | 35.36751 | 139.93654 | 4011 ft | 196 kts | 291° |
| 2026-04-24 13:27 | 35.37135 | 139.92043 | 4016 ft | 195 kts | 293° |
| 2026-04-24 13:28 | 35.37877 | 139.90738 | 4025 ft | 185 kts | 330° |
| 2026-04-24 13:28 | 35.39025 | 139.90037 | 3865 ft | 186 kts | 339° |
| 2026-04-24 13:28 | 35.40193 | 139.89421 | 3621 ft | 185 kts | 344° |
| 2026-04-24 13:28 | 35.41409 | 139.88862 | 3120 ft | 189 kts | 342° |
| 2026-04-24 13:29 | 35.42619 | 139.88265 | 2618 ft | 190 kts | 342° |
| 2026-04-24 13:29 | 35.43842 | 139.87564 | 2032 ft | 195 kts | 336° |
| 2026-04-24 13:29 | 35.45008 | 139.86794 | 1835 ft | 187 kts | 334° |
| 2026-04-24 13:29 | 35.46122 | 139.86054 | 1815 ft | 179 kts | 335° |
| 2026-04-24 13:30 | 35.47248 | 139.85305 | 1595 ft | 184 kts | 334° |
| 2026-04-24 13:30 | 35.48334 | 139.84537 | 1363 ft | 173 kts | 333° |
| 2026-04-24 13:30 | 35.49329 | 139.83822 | 1140 ft | 161 kts | 333° |
| 2026-04-24 13:30 | 35.50304 | 139.83132 | 927 ft | 159 kts | 333° |
| 2026-04-24 13:31 | 35.51214 | 139.82474 | 799 ft | 141 kts | 330° |
| 2026-04-24 13:31 | 35.51959 | 139.81901 | 494 ft | 119 kts | 333° |
| 2026-04-24 13:31 | 35.52673 | 139.81410 | 333 ft | 118 kts | 334° |
| 2026-04-24 13:31 | 35.53397 | 139.80911 | 203 ft | 119 kts | 333° |
| 2026-04-24 13:32 | 35.54112 | 139.80408 | 98 ft | 116 kts | 333° |
| 2026-04-24 13:32 | 35.54776 | 139.79939 | 23 ft | 102 kts | 334° |
| 2026-04-24 13:32 | 35.55287 | 139.79578 | 23 ft | 64 kts | 329° |
| 2026-04-24 13:32 | 35.55453 | 139.79390 | 20 ft | 12 kts | 304° |
| 2026-04-24 13:33 | 35.55484 | 139.79329 | 18 ft | 4 kts | 291° |
| 2026-04-24 13:33 | 35.55488 | 139.79316 | 17 ft | 0 kts | 285° |
| 2026-04-24 13:33 | 35.55493 | 139.79304 | 18 ft | 0 kts | 301° |
| 2026-04-24 13:34 | 35.55496 | 139.79299 | 18 ft | 0 kts | 301° |
| 2026-04-24 13:34 | 35.55501 | 139.79290 | 18 ft | 2 kts | 303° |
| 2026-04-24 13:34 | 35.55523 | 139.79240 | 19 ft | 9 kts | 284° |
| 2026-04-24 13:35 | 35.55531 | 139.79166 | 20 ft | 11 kts | 296° |
| 2026-04-24 13:35 | 35.55592 | 139.79108 | 21 ft | 12 kts | 329° |
| 2026-04-24 13:35 | 35.55672 | 139.79051 | 21 ft | 14 kts | 330° |
| 2026-04-24 13:35 | 35.55763 | 139.78987 | 20 ft | 16 kts | 330° |
| 2026-04-24 13:36 | 35.55867 | 139.78913 | 18 ft | 19 kts | 329° |
| 2026-04-24 13:36 | 35.55983 | 139.78831 | 19 ft | 20 kts | 330° |
| 2026-04-24 13:36 | 35.56106 | 139.78744 | 19 ft | 21 kts | 330° |
| 2026-04-24 13:36 | 35.56237 | 139.78651 | 19 ft | 22 kts | 329° |
| 2026-04-24 13:37 | 35.56335 | 139.78580 | 19 ft | 9 kts | 329° |
| 2026-04-24 13:37 | 35.56340 | 139.78576 | 20 ft | 0 kts | 328° |
| 2026-04-24 13:37 | 35.56386 | 139.78544 | 20 ft | 11 kts | 330° |
| 2026-04-24 13:37 | 35.56458 | 139.78491 | 21 ft | 12 kts | 312° |
| 2026-04-24 13:38 | 35.56451 | 139.78396 | 20 ft | 15 kts | 239° |
| 2026-04-24 13:38 | 35.56387 | 139.78260 | 20 ft | 19 kts | 240° |
| 2026-04-24 13:38 | 35.56319 | 139.78118 | 20 ft | 19 kts | 240° |
| 2026-04-24 13:38 | 35.56256 | 139.77983 | 20 ft | 18 kts | 239° |
| 2026-04-24 13:39 | 35.56197 | 139.77859 | 20 ft | 16 kts | 240° |
| 2026-04-24 13:39 | 35.56142 | 139.77743 | 19 ft | 16 kts | 240° |
| 2026-04-24 13:39 | 35.56087 | 139.77630 | 18 ft | 15 kts | 239° |
| 2026-04-24 13:39 | 35.56037 | 139.77524 | 18 ft | 11 kts | 239° |
| 2026-04-24 13:40 | 35.56025 | 139.77499 | 18 ft | 0 kts | 240° |
| 2026-04-24 13:40 | 35.56003 | 139.77451 | 17 ft | 13 kts | 240° |
| 2026-04-24 13:40 | 35.55958 | 139.77355 | 19 ft | 13 kts | 240° |
| 2026-04-24 13:40 | 35.55915 | 139.77270 | 19 ft | 11 kts | 225° |
| 2026-04-24 13:41 | 35.55855 | 139.77215 | 18 ft | 11 kts | 215° |
| 2026-04-24 13:41 | 35.55794 | 139.77163 | 18 ft | 10 kts | 215° |
| 2026-04-24 13:41 | 35.55747 | 139.77123 | 20 ft | 10 kts | 215° |
| 2026-04-24 13:41 | 35.55669 | 139.77057 | 18 ft | 15 kts | 216° |
| 2026-04-24 13:42 | 35.55588 | 139.76987 | 18 ft | 13 kts | 214° |
| 2026-04-24 13:42 | 35.55542 | 139.76947 | 18 ft | 12 kts | 215° |
| 2026-04-24 13:42 | 35.55429 | 139.76850 | 19 ft | 15 kts | 215° |
| 2026-04-24 13:42 | 35.55373 | 139.76802 | 18 ft | 14 kts | 214° |
| 2026-04-24 13:43 | 35.55283 | 139.76711 | 17 ft | 11 kts | 249° |
| 2026-04-24 13:43 | 35.55290 | 139.76651 | 17 ft | 10 kts | 299° |
| 2026-04-24 13:43 | 35.55312 | 139.76611 | 17 ft | 0 kts | 304° |
| 2026-04-24 13:44 | 35.55343 | 139.76555 | 18 ft | 13 kts | 304° |
| 2026-04-24 13:45 | 35.55407 | 139.76445 | 17 ft | 17 kts | 306° |
| 2026-04-24 13:45 | 35.55471 | 139.76331 | 13 ft | 14 kts | 308° |
| 2026-04-24 13:45 | 35.55545 | 139.76317 | 14 ft | 10 kts | 31° |
| 2026-04-24 13:45 | 35.55608 | 139.76329 | 14 ft | 10 kts | 332° |
| 2026-04-24 13:46 | 35.55652 | 139.76266 | 14 ft | 8 kts | 305° |
| 2026-04-24 13:46 | 35.55684 | 139.76213 | 14 ft | 8 kts | 306° |
| 2026-04-24 13:46 | 35.55697 | 139.76188 | 13 ft | 0 kts | 302° |
| 2026-04-24 13:46 | 35.55701 | 139.76182 | 13 ft | 4 kts | 302° |
| 2026-04-24 13:47 | 35.55742 | 139.76131 | 14 ft | 11 kts | 338° |
| 2026-04-24 13:47 | 35.55807 | 139.76100 | 17 ft | 9 kts | 324° |
| 2026-04-24 13:47 | 35.55853 | 139.76061 | 17 ft | 7 kts | 327° |
| 2026-04-24 13:47 | 35.55909 | 139.76013 | 17 ft | 12 kts | 325° |
| 2026-04-24 13:48 | 35.55994 | 139.75942 | 17 ft | 17 kts | 326° |
| 2026-04-24 13:48 | 35.56098 | 139.75854 | 18 ft | 19 kts | 324° |
| 2026-04-24 13:48 | 35.56175 | 139.75789 | 18 ft | 10 kts | 327° |
| 2026-04-24 13:48 | 35.56222 | 139.75817 | 18 ft | 8 kts | 62° |
| 2026-04-24 13:49 | 35.56251 | 139.75836 | 17 ft | 5 kts | 328° |
| 2026-04-24 13:49 | 35.56274 | 139.75819 | 17 ft | 0 kts | 329° |